TREK05 RPVA-RPUO
Flight info
| Callsign | TREK05 |
|---|---|
| Flight time | N/A |
| Altitude | 28000 |
| Route | MALAG5R MALAG W9 NGA W9B JOM TR27 RAYAT/N0338F210 TR23 CAB/N0334F280 B462 LAO M646 KAPOH |
| Aircraft | C130/M-SDE2E3FGRY/H |
Departure
| Time | N/A |
|---|---|
| Airport | Daniel Z. Romualdez Airport (RPVA) |
Arrival
| Time | 2026-05-04 05:56 |
|---|---|
| Airport | Basco Airport (RPUO) |
| Time | Latitude | Longitude | Altitude | Speed | Heading |
|---|---|---|---|---|---|
| 2026-05-04 04:38 | 14.36867 | 122.61279 | 27989 ft | 384 kts | 320° |
| 2026-05-04 04:38 | 14.37567 | 122.60690 | 27989 ft | 384 kts | 320° |
| 2026-05-04 04:38 | 14.41704 | 122.57211 | 27993 ft | 384 kts | 320° |
| 2026-05-04 04:38 | 14.43771 | 122.55475 | 27995 ft | 383 kts | 320° |
| 2026-05-04 04:39 | 14.45841 | 122.53736 | 27993 ft | 383 kts | 320° |
| 2026-05-04 04:39 | 14.47905 | 122.52003 | 27992 ft | 383 kts | 320° |
| 2026-05-04 04:39 | 14.49977 | 122.50266 | 27993 ft | 383 kts | 321° |
| 2026-05-04 04:39 | 14.52045 | 122.48533 | 27995 ft | 383 kts | 320° |
| 2026-05-04 04:40 | 14.54109 | 122.46803 | 27996 ft | 383 kts | 320° |
| 2026-05-04 04:40 | 14.56173 | 122.45066 | 27998 ft | 382 kts | 320° |
| 2026-05-04 04:40 | 14.58234 | 122.43327 | 27996 ft | 382 kts | 320° |
| 2026-05-04 04:40 | 14.60293 | 122.41590 | 27998 ft | 382 kts | 320° |
| 2026-05-04 04:41 | 14.62350 | 122.39856 | 27995 ft | 382 kts | 320° |
| 2026-05-04 04:41 | 14.64412 | 122.38119 | 27994 ft | 382 kts | 320° |
| 2026-05-04 04:41 | 14.66471 | 122.36384 | 27996 ft | 382 kts | 320° |
| 2026-05-04 04:41 | 14.68424 | 122.34534 | 27978 ft | 382 kts | 308° |
| 2026-05-04 04:42 | 14.69744 | 122.32171 | 27984 ft | 381 kts | 294° |
| 2026-05-04 04:42 | 14.70753 | 122.29635 | 27993 ft | 381 kts | 291° |
| 2026-05-04 04:42 | 14.71650 | 122.27094 | 27997 ft | 382 kts | 289° |
| 2026-05-04 04:42 | 14.72499 | 122.24498 | 27999 ft | 382 kts | 289° |
| 2026-05-04 04:43 | 14.73312 | 122.21886 | 28000 ft | 382 kts | 288° |
| 2026-05-04 04:43 | 14.74100 | 122.19264 | 28000 ft | 382 kts | 288° |
| 2026-05-04 04:43 | 14.74870 | 122.16639 | 27997 ft | 382 kts | 287° |
| 2026-05-04 04:43 | 14.75630 | 122.14004 | 27994 ft | 382 kts | 287° |
| 2026-05-04 04:44 | 14.76380 | 122.11367 | 28000 ft | 383 kts | 287° |
| 2026-05-04 04:44 | 14.77125 | 122.08731 | 28000 ft | 383 kts | 287° |
| 2026-05-04 04:44 | 14.77865 | 122.06091 | 27996 ft | 383 kts | 287° |
| 2026-05-04 04:44 | 14.78602 | 122.03450 | 28000 ft | 383 kts | 287° |
| 2026-05-04 04:45 | 14.79338 | 122.00804 | 27998 ft | 383 kts | 287° |
| 2026-05-04 04:45 | 14.80071 | 121.98161 | 28000 ft | 383 kts | 287° |
| 2026-05-04 04:47 | 14.85181 | 121.79623 | 28011 ft | 383 kts | 287° |
| 2026-05-04 04:47 | 14.86638 | 121.74325 | 28013 ft | 383 kts | 287° |
| 2026-05-04 04:48 | 14.88092 | 121.69022 | 28023 ft | 383 kts | 287° |
| 2026-05-04 04:49 | 14.91712 | 121.55766 | 28030 ft | 383 kts | 287° |
| 2026-05-04 04:49 | 14.93159 | 121.50461 | 28032 ft | 383 kts | 287° |
| 2026-05-04 04:50 | 14.94607 | 121.45155 | 28035 ft | 383 kts | 287° |
| 2026-05-04 04:50 | 14.96053 | 121.39846 | 28032 ft | 384 kts | 287° |
| 2026-05-04 04:51 | 14.97488 | 121.34569 | 28030 ft | 384 kts | 287° |
| 2026-05-04 04:51 | 14.98933 | 121.29259 | 28031 ft | 384 kts | 287° |
| 2026-05-04 04:52 | 15.00380 | 121.23946 | 28029 ft | 384 kts | 287° |
| 2026-05-04 04:52 | 15.01364 | 121.21403 | 28011 ft | 381 kts | 303° |
| 2026-05-04 04:52 | 15.03128 | 121.19387 | 28006 ft | 379 kts | 324° |
| 2026-05-04 04:53 | 15.05314 | 121.18202 | 28004 ft | 379 kts | 343° |
| 2026-05-04 04:53 | 15.07822 | 121.17596 | 28017 ft | 378 kts | 348° |
| 2026-05-04 04:53 | 15.12978 | 121.16498 | 28027 ft | 378 kts | 347° |
| 2026-05-04 04:54 | 15.18072 | 121.15105 | 28026 ft | 379 kts | 343° |
| 2026-05-04 04:54 | 15.23076 | 121.13391 | 28024 ft | 379 kts | 340° |
| 2026-05-04 04:55 | 15.28009 | 121.11456 | 28025 ft | 379 kts | 338° |
| 2026-05-04 04:55 | 15.32903 | 121.09378 | 28025 ft | 380 kts | 337° |
| 2026-05-04 04:56 | 15.37767 | 121.07222 | 28019 ft | 380 kts | 336° |
| 2026-05-04 04:56 | 15.42618 | 121.05025 | 28017 ft | 380 kts | 336° |
| 2026-05-04 04:57 | 15.47505 | 121.02920 | 28006 ft | 381 kts | 344° |
| 2026-05-04 04:57 | 15.52679 | 121.01721 | 28008 ft | 381 kts | 349° |
| 2026-05-04 04:58 | 15.57899 | 121.00727 | 28008 ft | 382 kts | 349° |
| 2026-05-04 04:58 | 15.63134 | 120.99766 | 28006 ft | 382 kts | 349° |
| 2026-05-04 04:59 | 15.67487 | 120.98973 | 28009 ft | 382 kts | 349° |
| 2026-05-04 04:59 | 15.73622 | 120.97861 | 28009 ft | 383 kts | 349° |
| 2026-05-04 05:00 | 15.78836 | 120.96914 | 28009 ft | 383 kts | 349° |
| 2026-05-04 05:01 | 15.86705 | 120.95483 | 28015 ft | 383 kts | 349° |
| 2026-05-04 05:01 | 15.91956 | 120.94523 | 28021 ft | 383 kts | 349° |
| 2026-05-04 05:02 | 15.97205 | 120.93568 | 28022 ft | 383 kts | 349° |
| 2026-05-04 05:02 | 16.02462 | 120.92607 | 28027 ft | 383 kts | 349° |
| 2026-05-04 05:03 | 16.07715 | 120.91648 | 28031 ft | 383 kts | 349° |
| 2026-05-04 05:04 | 16.18203 | 120.89729 | 28033 ft | 382 kts | 349° |
| 2026-05-04 05:04 | 16.23440 | 120.88770 | 28041 ft | 382 kts | 349° |
| 2026-05-04 05:06 | 16.44367 | 120.84936 | 28062 ft | 383 kts | 348° |
| 2026-05-04 05:07 | 16.49614 | 120.83974 | 28068 ft | 383 kts | 348° |
| 2026-05-04 05:07 | 16.54849 | 120.83014 | 28070 ft | 382 kts | 348° |
| 2026-05-04 05:09 | 16.78421 | 120.78679 | 28074 ft | 383 kts | 348° |
| 2026-05-04 05:10 | 16.83677 | 120.77711 | 28074 ft | 384 kts | 348° |
| 2026-05-04 05:10 | 16.88934 | 120.76742 | 28072 ft | 384 kts | 348° |
| 2026-05-04 05:11 | 16.94200 | 120.75774 | 28071 ft | 384 kts | 348° |
| 2026-05-04 05:11 | 16.99467 | 120.74803 | 28066 ft | 384 kts | 348° |
| 2026-05-04 05:12 | 17.04735 | 120.73829 | 28063 ft | 384 kts | 348° |
| 2026-05-04 05:12 | 17.10001 | 120.72857 | 28058 ft | 384 kts | 348° |
| 2026-05-04 05:13 | 17.14411 | 120.72044 | 28050 ft | 384 kts | 348° |
| 2026-05-04 05:13 | 17.19637 | 120.71081 | 28047 ft | 384 kts | 348° |
| 2026-05-04 05:14 | 17.24905 | 120.70104 | 28038 ft | 385 kts | 348° |
| 2026-05-04 05:14 | 17.30177 | 120.69132 | 28031 ft | 384 kts | 348° |
| 2026-05-04 05:15 | 17.35443 | 120.68159 | 28027 ft | 384 kts | 348° |
| 2026-05-04 05:15 | 17.40706 | 120.67187 | 28025 ft | 384 kts | 348° |
| 2026-05-04 05:16 | 17.45967 | 120.66218 | 28021 ft | 384 kts | 348° |
| 2026-05-04 05:16 | 17.51237 | 120.65248 | 28020 ft | 385 kts | 348° |
| 2026-05-04 05:17 | 17.56507 | 120.64276 | 28019 ft | 385 kts | 347° |
| 2026-05-04 05:17 | 17.61784 | 120.63302 | 28016 ft | 385 kts | 347° |
| 2026-05-04 05:18 | 17.67054 | 120.62328 | 28014 ft | 384 kts | 347° |
| 2026-05-04 05:18 | 17.72322 | 120.61359 | 28010 ft | 384 kts | 347° |
| 2026-05-04 05:19 | 17.77589 | 120.60385 | 28009 ft | 385 kts | 347° |
| 2026-05-04 05:19 | 17.82868 | 120.59413 | 28008 ft | 385 kts | 347° |
| 2026-05-04 05:20 | 17.88145 | 120.58438 | 27999 ft | 385 kts | 347° |
| 2026-05-04 05:20 | 17.90785 | 120.57950 | 27997 ft | 386 kts | 347° |
| 2026-05-04 05:20 | 17.93427 | 120.57460 | 27997 ft | 385 kts | 347° |
| 2026-05-04 05:21 | 17.96069 | 120.56971 | 27996 ft | 385 kts | 347° |
| 2026-05-04 05:21 | 17.98705 | 120.56482 | 27993 ft | 385 kts | 347° |
| 2026-05-04 05:21 | 18.01345 | 120.55992 | 27991 ft | 385 kts | 347° |
| 2026-05-04 05:21 | 18.03984 | 120.55502 | 27991 ft | 385 kts | 347° |
| 2026-05-04 05:22 | 18.06622 | 120.55013 | 27991 ft | 385 kts | 347° |
| 2026-05-04 05:22 | 18.09261 | 120.54521 | 27993 ft | 385 kts | 347° |
| 2026-05-04 05:22 | 18.11900 | 120.54029 | 27993 ft | 385 kts | 347° |
| 2026-05-04 05:22 | 18.14540 | 120.53568 | 27988 ft | 386 kts | 351° |
| 2026-05-04 05:23 | 18.17231 | 120.53430 | 27992 ft | 388 kts | 356° |
| 2026-05-04 05:23 | 18.19930 | 120.53453 | 27991 ft | 388 kts | 358° |
| 2026-05-04 05:23 | 18.22632 | 120.53546 | 27991 ft | 389 kts | 359° |
| 2026-05-04 05:23 | 18.25336 | 120.53682 | 27992 ft | 389 kts | 0° |
| 2026-05-04 05:24 | 18.28038 | 120.53845 | 27993 ft | 389 kts | 0° |
| 2026-05-04 05:24 | 18.30740 | 120.54024 | 27994 ft | 389 kts | 1° |
| 2026-05-04 05:24 | 18.33408 | 120.54214 | 27994 ft | 389 kts | 1° |
| 2026-05-04 05:24 | 18.36112 | 120.54416 | 27996 ft | 389 kts | 1° |
| 2026-05-04 05:25 | 18.38810 | 120.54622 | 27995 ft | 389 kts | 1° |
| 2026-05-04 05:25 | 18.41513 | 120.54830 | 27999 ft | 390 kts | 1° |
| 2026-05-04 05:25 | 18.46920 | 120.55253 | 28011 ft | 390 kts | 1° |
| 2026-05-04 05:26 | 18.52330 | 120.55680 | 28024 ft | 390 kts | 1° |
| 2026-05-04 05:26 | 18.57743 | 120.56111 | 28034 ft | 390 kts | 1° |
| 2026-05-04 05:28 | 18.77534 | 120.64822 | 28043 ft | 402 kts | 33° |
| 2026-05-04 05:29 | 18.79831 | 120.66558 | 27663 ft | 413 kts | 33° |
| 2026-05-04 05:29 | 18.82190 | 120.68357 | 27173 ft | 424 kts | 33° |
| 2026-05-04 05:29 | 18.84598 | 120.70208 | 26741 ft | 432 kts | 34° |
| 2026-05-04 05:29 | 18.87044 | 120.72097 | 26318 ft | 439 kts | 34° |
| 2026-05-04 05:31 | 19.04680 | 120.85902 | 23768 ft | 457 kts | 35° |
| 2026-05-04 05:31 | 19.07229 | 120.87916 | 23454 ft | 458 kts | 35° |
| 2026-05-04 05:32 | 19.09782 | 120.89933 | 23091 ft | 458 kts | 35° |
| 2026-05-04 05:32 | 19.12334 | 120.91950 | 22737 ft | 458 kts | 35° |
| 2026-05-04 05:32 | 19.14888 | 120.93968 | 22387 ft | 458 kts | 35° |
| 2026-05-04 05:33 | 19.19958 | 120.97974 | 21729 ft | 458 kts | 35° |
| 2026-05-04 05:33 | 19.22508 | 120.99986 | 21408 ft | 458 kts | 35° |
| 2026-05-04 05:33 | 19.25057 | 121.02002 | 21063 ft | 458 kts | 35° |
| 2026-05-04 05:33 | 19.27620 | 121.04028 | 20652 ft | 460 kts | 35° |
| 2026-05-04 05:34 | 19.30186 | 121.06060 | 20251 ft | 461 kts | 35° |
| 2026-05-04 05:34 | 19.32759 | 121.08097 | 19856 ft | 462 kts | 36° |
| 2026-05-04 05:34 | 19.35333 | 121.10137 | 19472 ft | 462 kts | 36° |
| 2026-05-04 05:34 | 19.37898 | 121.12168 | 19079 ft | 459 kts | 36° |
| 2026-05-04 05:35 | 19.40425 | 121.14174 | 18529 ft | 443 kts | 36° |
| 2026-05-04 05:35 | 19.42823 | 121.16081 | 17939 ft | 422 kts | 36° |
| 2026-05-04 05:35 | 19.45136 | 121.17920 | 17321 ft | 410 kts | 36° |
| 2026-05-04 05:35 | 19.47391 | 121.19711 | 16721 ft | 400 kts | 36° |
| 2026-05-04 05:36 | 19.49594 | 121.21455 | 16136 ft | 391 kts | 36° |
| 2026-05-04 05:36 | 19.51749 | 121.23162 | 15574 ft | 383 kts | 36° |
| 2026-05-04 05:36 | 19.53859 | 121.24834 | 15023 ft | 375 kts | 36° |
| 2026-05-04 05:36 | 19.55924 | 121.26474 | 14479 ft | 368 kts | 36° |
| 2026-05-04 05:37 | 19.57954 | 121.28086 | 13957 ft | 361 kts | 36° |
| 2026-05-04 05:37 | 19.59946 | 121.29670 | 13410 ft | 355 kts | 36° |
| 2026-05-04 05:37 | 19.61906 | 121.31231 | 12830 ft | 349 kts | 36° |
| 2026-05-04 05:38 | 19.65710 | 121.34264 | 11923 ft | 333 kts | 36° |
| 2026-05-04 05:38 | 19.67535 | 121.35719 | 11535 ft | 324 kts | 36° |
| 2026-05-04 05:38 | 19.69314 | 121.37140 | 11166 ft | 316 kts | 36° |
| 2026-05-04 05:38 | 19.71052 | 121.38527 | 10815 ft | 309 kts | 36° |
| 2026-05-04 05:39 | 19.72748 | 121.39883 | 10467 ft | 302 kts | 37° |
| 2026-05-04 05:39 | 19.76012 | 121.42491 | 9804 ft | 289 kts | 36° |
| 2026-05-04 05:39 | 19.77620 | 121.43775 | 9503 ft | 281 kts | 36° |
| 2026-05-04 05:40 | 19.80990 | 121.45556 | 9109 ft | 259 kts | 19° |
| 2026-05-04 05:40 | 19.82634 | 121.46167 | 9092 ft | 243 kts | 19° |
| 2026-05-04 05:40 | 19.84186 | 121.46724 | 9069 ft | 228 kts | 18° |
| 2026-05-04 05:41 | 19.85626 | 121.47230 | 9046 ft | 214 kts | 18° |
| 2026-05-04 05:41 | 19.87000 | 121.47708 | 9021 ft | 201 kts | 18° |
| 2026-05-04 05:41 | 19.88290 | 121.48155 | 8986 ft | 189 kts | 18° |
| 2026-05-04 05:41 | 19.89497 | 121.48573 | 8945 ft | 176 kts | 18° |
| 2026-05-04 05:42 | 19.90623 | 121.48961 | 8889 ft | 164 kts | 18° |
| 2026-05-04 05:42 | 19.91335 | 121.49207 | 8860 ft | 156 kts | 18° |
| 2026-05-04 05:42 | 19.92674 | 121.49661 | 8842 ft | 161 kts | 17° |
| 2026-05-04 05:42 | 19.93812 | 121.50050 | 8918 ft | 183 kts | 18° |
| 2026-05-04 05:43 | 19.95092 | 121.50506 | 8989 ft | 205 kts | 19° |
| 2026-05-04 05:43 | 19.96504 | 121.51021 | 9046 ft | 224 kts | 19° |
| 2026-05-04 05:43 | 19.98031 | 121.51583 | 9084 ft | 240 kts | 19° |
| 2026-05-04 05:45 | 20.10461 | 121.56213 | 9161 ft | 287 kts | 19° |
| 2026-05-04 05:45 | 20.12349 | 121.56921 | 9161 ft | 289 kts | 19° |
| 2026-05-04 05:47 | 20.24017 | 121.65058 | 7092 ft | 277 kts | 54° |
| 2026-05-04 05:47 | 20.25141 | 121.66690 | 6839 ft | 265 kts | 54° |
| 2026-05-04 05:47 | 20.26136 | 121.68158 | 6791 ft | 227 kts | 55° |
| 2026-05-04 05:48 | 20.27016 | 121.69455 | 6555 ft | 207 kts | 55° |
| 2026-05-04 05:48 | 20.27833 | 121.70658 | 6280 ft | 195 kts | 55° |
| 2026-05-04 05:48 | 20.28602 | 121.71802 | 5972 ft | 186 kts | 56° |
| 2026-05-04 05:48 | 20.29345 | 121.72914 | 5584 ft | 183 kts | 56° |
| 2026-05-04 05:49 | 20.30068 | 121.74003 | 5208 ft | 181 kts | 56° |
| 2026-05-04 05:49 | 20.30794 | 121.75093 | 4836 ft | 180 kts | 56° |
| 2026-05-04 05:49 | 20.31512 | 121.76177 | 4439 ft | 178 kts | 56° |
| 2026-05-04 05:49 | 20.32226 | 121.77252 | 4055 ft | 177 kts | 56° |
| 2026-05-04 05:51 | 20.36774 | 121.84731 | 2310 ft | 150 kts | 62° |
| 2026-05-04 05:51 | 20.37258 | 121.85634 | 2077 ft | 128 kts | 58° |
| 2026-05-04 05:52 | 20.37746 | 121.86427 | 1977 ft | 128 kts | 57° |
| 2026-05-04 05:52 | 20.38243 | 121.87208 | 1838 ft | 127 kts | 56° |
| 2026-05-04 05:52 | 20.38741 | 121.87988 | 1714 ft | 127 kts | 56° |
| 2026-05-04 05:52 | 20.39239 | 121.88767 | 1584 ft | 127 kts | 56° |
| 2026-05-04 05:53 | 20.39739 | 121.89543 | 1457 ft | 127 kts | 57° |
| 2026-05-04 05:54 | 20.42857 | 121.94571 | 986 ft | 115 kts | 55° |
| 2026-05-04 05:55 | 20.43340 | 121.95271 | 957 ft | 117 kts | 56° |
| 2026-05-04 05:55 | 20.43810 | 121.95961 | 761 ft | 113 kts | 56° |
| 2026-05-04 05:55 | 20.44252 | 121.96651 | 604 ft | 113 kts | 57° |
| 2026-05-04 05:55 | 20.44688 | 121.97308 | 382 ft | 104 kts | 57° |
| 2026-05-04 05:56 | 20.45045 | 121.97874 | 315 ft | 66 kts | 54° |
| 2026-05-04 05:56 | 20.45179 | 121.98080 | 311 ft | 1 kts | 56° |
| 2026-05-04 05:56 | 20.45218 | 121.98142 | 312 ft | 25 kts | 55° |
| 2026-05-04 05:56 | 20.45315 | 121.98303 | 313 ft | 25 kts | 54° |
| 2026-05-04 05:57 | 20.45421 | 121.98466 | 315 ft | 14 kts | 40° |
| 2026-05-04 05:57 | 20.45455 | 121.98498 | 315 ft | 4 kts | 142° |
| 2026-05-04 05:57 | 20.45413 | 121.98439 | 315 ft | 20 kts | 235° |
| 2026-05-04 05:57 | 20.45393 | 121.98408 | 314 ft | 0 kts | 236° |